createdAt,value
2023-05-10T00:00:54.918Z,285.00
2023-05-10T00:01:54.947Z,287.99
2023-05-10T00:02:55.020Z,285.49
2023-05-10T00:03:55.880Z,285.49
2023-05-10T00:04:54.949Z,287.99
2023-05-10T00:05:54.913Z,286.98
2023-05-10T00:06:54.881Z,285.00
2023-05-10T00:07:54.870Z,289.00
2023-05-10T00:08:55.792Z,284.02
2023-05-10T00:09:54.843Z,289.51
2023-05-10T00:10:54.786Z,285.99
2023-05-10T00:11:54.797Z,284.51
2023-05-10T00:12:54.892Z,285.74
2023-05-10T00:13:55.681Z,289.76
2023-05-10T00:14:54.803Z,287.49
2023-05-10T00:15:54.742Z,285.99
2023-05-10T00:16:54.933Z,287.99
2023-05-10T00:17:54.773Z,285.74
2023-05-10T00:18:54.719Z,291.04
2023-05-10T00:19:55.601Z,285.74
2023-05-10T00:20:54.671Z,286.24
2023-05-10T00:21:54.696Z,286.73
2023-05-10T00:22:54.708Z,288.24
2023-05-10T00:23:54.632Z,287.23
2023-05-10T00:24:54.640Z,288.49
2023-05-10T00:25:55.538Z,287.74
2023-05-10T00:26:54.714Z,287.23
2023-05-10T00:27:54.589Z,287.23
2023-05-10T00:28:54.565Z,287.74
2023-05-10T00:29:54.636Z,290.02
2023-05-10T00:30:55.468Z,289.00
2023-05-10T00:31:54.562Z,290.02
2023-05-10T00:32:54.530Z,290.02
2023-05-10T00:33:54.551Z,288.24
2023-05-10T00:34:54.513Z,289.25
2023-05-10T00:35:55.437Z,291.56
2023-05-10T00:36:54.589Z,288.75
2023-05-10T00:37:54.453Z,289.25
2023-05-10T00:38:54.458Z,290.53
2023-05-10T00:39:54.505Z,292.08
2023-05-10T00:40:54.435Z,291.04
2023-05-10T00:41:55.482Z,289.51
2023-05-10T00:42:54.393Z,291.56
2023-05-10T00:43:54.372Z,289.76
2023-05-10T00:44:54.484Z,289.76
2023-05-10T00:45:54.403Z,290.02
2023-05-10T00:46:54.351Z,292.08
2023-05-10T00:47:55.357Z,292.85
2023-05-10T00:48:54.304Z,290.79
2023-05-10T00:49:54.320Z,290.53
2023-05-10T00:50:54.305Z,291.56
2023-05-10T00:51:54.327Z,292.59
2023-05-10T00:52:55.175Z,292.59
2023-05-10T00:53:54.299Z,291.04
2023-05-10T00:54:54.235Z,292.08
2023-05-10T00:55:54.270Z,292.59
2023-05-10T00:56:54.215Z,293.38
2023-05-10T00:57:55.123Z,293.90
2023-05-10T00:58:54.167Z,294.42
2023-05-10T00:59:54.190Z,293.64
2023-05-10T01:00:54.137Z,293.11
2023-05-10T01:01:54.196Z,294.69
2023-05-10T01:02:54.224Z,294.16
2023-05-10T01:03:55.187Z,293.90
2023-05-10T01:04:54.133Z,295.22
2023-05-10T01:05:54.084Z,294.69
2023-05-10T01:06:54.078Z,295.22
2023-05-10T01:07:54.124Z,294.95
2023-05-10T01:08:55.041Z,294.95
2023-05-10T01:09:54.050Z,295.22
2023-05-10T01:10:54.034Z,295.22
2023-05-10T01:11:54.037Z,295.75
2023-05-10T01:12:54.007Z,294.69
2023-05-10T01:13:54.986Z,295.75
2023-05-10T01:14:53.988Z,296.28
2023-05-10T01:15:53.994Z,296.28
2023-05-10T01:16:53.973Z,296.28
2023-05-10T01:17:53.995Z,294.69
2023-05-10T01:18:53.964Z,296.28
2023-05-10T01:19:54.870Z,294.69
2023-05-10T01:20:55.599Z,296.28
2023-05-10T01:21:53.935Z,295.75
2023-05-10T01:22:53.920Z,296.28
2023-05-10T01:23:53.842Z,295.48
2023-05-10T01:24:54.788Z,297.35
2023-05-10T01:25:53.856Z,297.35
2023-05-10T01:26:53.812Z,296.55
2023-05-10T01:27:53.880Z,296.81
2023-05-10T01:28:53.791Z,296.01
2023-05-10T01:30:21.775Z,296.81
2023-05-10T01:30:55.820Z,297.35
2023-05-10T01:31:53.749Z,298.43
2023-05-10T01:32:53.843Z,297.35
2023-05-10T01:33:53.765Z,297.89
2023-05-10T01:34:53.766Z,299.79
2023-05-10T01:35:54.682Z,298.97
2023-05-10T01:36:53.713Z,297.89
2023-05-10T01:37:53.695Z,298.97
2023-05-10T01:38:53.708Z,298.97
2023-05-10T01:39:53.652Z,298.97
2023-05-10T01:40:53.643Z,298.97
2023-05-10T01:41:54.555Z,298.70
2023-05-10T01:42:53.632Z,300.33
2023-05-10T01:43:53.634Z,299.51
2023-05-10T01:44:53.607Z,298.97
2023-05-10T01:45:53.579Z,298.43
2023-05-10T01:46:54.529Z,297.35
2023-05-10T01:47:53.592Z,301.43
2023-05-10T01:48:53.543Z,299.79
2023-05-10T01:49:53.535Z,298.97
2023-05-10T01:50:53.500Z,300.06
2023-05-10T01:51:54.419Z,301.71
2023-05-10T01:52:53.523Z,298.97
2023-05-10T01:53:53.442Z,299.79
2023-05-10T01:54:53.484Z,299.79
2023-05-10T01:55:53.518Z,299.79
2023-05-10T01:56:53.427Z,300.06
2023-05-10T01:57:54.362Z,299.79
2023-05-10T01:58:53.396Z,300.61
2023-05-10T01:59:53.431Z,300.61
2023-05-10T02:00:53.511Z,298.43
2023-05-10T02:01:53.346Z,301.16
2023-05-10T02:02:53.388Z,299.79
2023-05-10T02:03:54.329Z,300.61
2023-05-10T02:04:53.361Z,301.43
2023-05-10T02:05:53.324Z,301.43
2023-05-10T02:06:53.311Z,301.71
2023-05-10T02:07:53.353Z,301.71
2023-05-10T02:08:53.289Z,300.33
2023-05-10T02:09:54.234Z,301.71
2023-05-10T02:10:53.345Z,302.26
2023-05-10T02:11:53.277Z,301.71
2023-05-10T02:12:53.287Z,302.26
2023-05-10T02:13:53.201Z,304.22
2023-05-10T02:14:54.210Z,302.54
2023-05-10T02:15:53.236Z,302.26
2023-05-10T02:16:53.221Z,303.38
2023-05-10T02:17:53.197Z,302.82
2023-05-10T02:18:53.180Z,302.82
2023-05-10T02:19:53.185Z,301.16
2023-05-10T02:20:54.039Z,301.71
2023-05-10T02:21:53.148Z,301.43
2023-05-10T02:22:53.108Z,301.98
2023-05-10T02:23:53.099Z,303.65
2023-05-10T02:24:53.123Z,303.93
2023-05-10T02:25:54.050Z,302.26
2023-05-10T02:26:53.031Z,303.38
2023-05-10T02:27:53.021Z,303.93
2023-05-10T02:28:53.026Z,303.38
2023-05-10T02:29:53.025Z,304.22
2023-05-10T02:30:53.001Z,303.65
2023-05-10T02:31:53.963Z,305.34
2023-05-10T02:32:53.012Z,303.38
2023-05-10T02:33:53.575Z,304.78
2023-05-10T02:34:53.069Z,304.22
2023-05-10T02:35:52.933Z,305.63
2023-05-10T02:36:53.827Z,303.10
2023-05-10T02:37:52.987Z,304.78
2023-05-10T02:38:52.921Z,304.78
2023-05-10T02:39:52.862Z,304.50
2023-05-10T02:40:52.888Z,304.50
2023-05-10T02:41:52.874Z,303.93
2023-05-10T02:42:53.772Z,303.93
2023-05-10T02:43:52.914Z,305.91
2023-05-10T02:44:52.831Z,306.20
2023-05-10T02:45:52.907Z,307.05
2023-05-10T02:46:52.778Z,305.06
2023-05-10T02:47:53.745Z,306.20
2023-05-10T02:48:52.754Z,305.63
2023-05-10T02:49:52.776Z,307.34
2023-05-10T02:50:52.771Z,307.34
2023-05-10T02:51:52.699Z,306.20
2023-05-10T02:52:53.348Z,306.48
2023-05-10T02:53:53.666Z,305.91
2023-05-10T02:54:52.706Z,306.77
2023-05-10T02:55:52.726Z,306.77
2023-05-10T02:56:52.637Z,305.63
2023-05-10T02:57:52.641Z,305.91
2023-05-10T02:58:52.637Z,306.77
2023-05-10T02:59:53.593Z,307.34
2023-05-10T03:00:52.598Z,306.20
2023-05-10T03:01:52.697Z,307.63
2023-05-10T03:02:52.700Z,307.91
2023-05-10T03:03:52.550Z,307.34
2023-05-10T03:04:52.539Z,308.49
2023-05-10T03:05:53.465Z,307.05
2023-05-10T03:06:52.756Z,307.05
2023-05-10T03:07:52.528Z,307.91
2023-05-10T03:08:52.492Z,306.48
2023-05-10T03:09:53.460Z,309.07
2023-05-10T03:10:53.449Z,307.05
2023-05-10T03:11:52.491Z,308.78
2023-05-10T03:12:52.496Z,308.49
2023-05-10T03:13:52.444Z,308.20
2023-05-10T03:14:52.551Z,308.20
2023-05-10T03:15:53.386Z,308.78
2023-05-10T03:16:52.445Z,308.49
2023-05-10T03:17:52.467Z,308.20
2023-05-10T03:18:52.373Z,309.65
2023-05-10T03:19:52.349Z,310.23
2023-05-10T03:20:52.396Z,308.49
2023-05-10T03:21:53.314Z,309.36
2023-05-10T03:22:52.312Z,309.94
2023-05-10T03:23:52.324Z,308.78
2023-05-10T03:24:52.315Z,309.65
2023-05-10T03:25:52.332Z,309.94
2023-05-10T03:26:52.289Z,311.41
2023-05-10T03:27:53.196Z,310.23
2023-05-10T03:28:52.266Z,308.49
2023-05-10T03:29:52.266Z,310.23
2023-05-10T03:30:52.202Z,310.23
2023-05-10T03:31:52.350Z,310.23
2023-05-10T03:32:52.216Z,310.23
2023-05-10T03:33:53.105Z,310.82
2023-05-10T03:34:52.171Z,310.23
2023-05-10T03:35:52.160Z,311.41
2023-05-10T03:36:52.224Z,310.82
2023-05-10T03:37:52.094Z,310.82
2023-05-10T03:38:52.145Z,311.41
2023-05-10T03:39:53.029Z,308.78
2023-05-10T03:40:52.238Z,310.23
2023-05-10T03:41:52.071Z,309.36
2023-05-10T03:42:52.065Z,310.82
2023-05-10T03:43:52.076Z,310.23
2023-05-10T03:44:52.036Z,310.23
2023-05-10T03:45:52.953Z,312.59
2023-05-10T03:46:52.032Z,311.11
2023-05-10T03:47:52.035Z,312.29
2023-05-10T03:48:52.010Z,311.41
2023-05-10T03:49:52.021Z,309.94
2023-05-10T03:50:52.869Z,311.11
2023-05-10T03:51:51.926Z,310.23
2023-05-10T03:52:54.577Z,311.41
2023-05-10T03:53:51.901Z,311.11
2023-05-10T03:54:52.081Z,310.82
2023-05-10T03:55:51.916Z,311.41
2023-05-10T03:56:52.869Z,311.11
2023-05-10T03:57:51.929Z,312.00
2023-05-10T03:58:51.869Z,310.23
2023-05-10T03:59:51.954Z,310.53
2023-05-10T04:00:51.827Z,310.23
2023-05-10T04:01:51.819Z,312.00
2023-05-10T04:02:52.823Z,312.89
2023-05-10T04:03:51.855Z,312.00
2023-05-10T04:04:51.763Z,311.11
2023-05-10T04:05:51.796Z,310.82
2023-05-10T04:06:51.759Z,310.53
2023-05-10T04:07:52.685Z,310.82
2023-05-10T04:08:51.751Z,311.41
2023-05-10T04:09:52.000Z,312.00
2023-05-10T04:10:51.704Z,311.11
2023-05-10T04:11:51.666Z,312.00
2023-05-10T04:12:52.699Z,309.65
2023-05-10T04:13:51.702Z,310.53
2023-05-10T04:14:51.710Z,312.00
2023-05-10T04:15:51.611Z,311.11
2023-05-10T04:16:51.712Z,312.29
2023-05-10T04:17:51.621Z,310.53
2023-05-10T04:18:52.616Z,310.23
2023-05-10T04:19:51.560Z,311.11
2023-05-10T04:20:51.578Z,312.00
2023-05-10T04:21:51.571Z,311.11
2023-05-10T04:22:51.527Z,310.23
2023-05-10T04:23:52.473Z,312.59
2023-05-10T04:24:51.539Z,310.82
2023-05-10T04:25:51.493Z,311.11
2023-05-10T04:26:51.592Z,311.70
2023-05-10T04:27:51.452Z,312.00
2023-05-10T04:28:51.560Z,312.59
2023-05-10T04:29:52.436Z,312.00
2023-05-10T04:30:51.436Z,311.70
2023-05-10T04:31:51.470Z,311.41
2023-05-10T04:32:51.458Z,312.29
2023-05-10T04:33:51.421Z,310.23
2023-05-10T04:34:51.397Z,312.59
2023-05-10T04:35:52.290Z,312.59
2023-05-10T04:36:51.392Z,312.29
2023-05-10T04:37:51.318Z,312.29
2023-05-10T04:38:51.362Z,310.82
2023-05-10T04:39:51.531Z,311.70
2023-05-10T04:40:51.300Z,312.29
2023-05-10T04:41:52.271Z,312.00
2023-05-10T04:42:51.308Z,313.18
2023-05-10T04:43:51.255Z,311.70
2023-05-10T04:44:51.307Z,310.23
2023-05-10T04:45:51.330Z,311.41
2023-05-10T04:46:51.384Z,311.41
2023-05-10T04:47:52.309Z,311.11
2023-05-10T04:48:51.363Z,310.23
2023-05-10T04:49:51.230Z,309.65
2023-05-10T04:50:51.210Z,310.23
2023-05-10T04:51:51.240Z,310.82
2023-05-10T04:52:52.280Z,311.11
2023-05-10T04:54:04.708Z,309.36
2023-05-10T04:54:52.690Z,309.65
2023-05-10T04:55:51.095Z,310.82
2023-05-10T04:56:51.105Z,310.23
2023-05-10T04:57:51.080Z,312.00
2023-05-10T04:58:52.040Z,309.94
2023-05-10T04:59:51.063Z,310.23
2023-05-10T05:00:51.032Z,309.94
2023-05-10T05:01:51.041Z,310.82
2023-05-10T05:02:51.115Z,309.65
2023-05-10T05:03:52.008Z,308.78
2023-05-10T05:04:51.002Z,308.78
2023-05-10T05:05:50.992Z,309.65
2023-05-10T05:06:53.655Z,307.05
2023-05-10T05:07:50.965Z,309.65
2023-05-10T05:08:51.901Z,309.36
2023-05-10T05:09:50.959Z,308.49
2023-05-10T05:10:50.937Z,307.91
2023-05-10T05:11:50.899Z,308.49
2023-05-10T05:12:50.905Z,309.07
2023-05-10T05:13:50.891Z,307.91
2023-05-10T05:14:51.802Z,306.77
2023-05-10T05:15:50.917Z,307.91
2023-05-10T05:16:50.806Z,307.63
2023-05-10T05:17:50.888Z,307.34
2023-05-10T05:18:50.838Z,307.34
2023-05-10T05:19:50.806Z,307.34
2023-05-10T05:20:51.740Z,307.91
2023-05-10T05:21:50.865Z,306.77
2023-05-10T05:22:50.776Z,307.91
2023-05-10T05:23:50.727Z,308.20
2023-05-10T05:24:50.732Z,305.91
2023-05-10T05:25:50.678Z,308.20
2023-05-10T05:26:51.649Z,306.48
2023-05-10T05:27:50.708Z,306.77
2023-05-10T05:28:50.683Z,307.91
2023-05-10T05:29:50.674Z,306.20
2023-05-10T05:30:50.663Z,306.48
2023-05-10T05:31:51.040Z,307.63
2023-05-10T05:32:51.753Z,305.63
2023-05-10T05:33:50.632Z,307.05
2023-05-10T05:34:50.617Z,305.34
2023-05-10T05:35:50.605Z,305.34
2023-05-10T05:36:50.602Z,307.34
2023-05-10T05:37:50.650Z,304.50
2023-05-10T05:38:51.496Z,306.48
2023-05-10T05:39:50.541Z,306.20
2023-05-10T05:40:50.599Z,305.91
2023-05-10T05:41:50.603Z,305.06
2023-05-10T05:42:50.541Z,306.77
2023-05-10T05:43:51.418Z,305.06
2023-05-10T05:44:50.492Z,305.91
2023-05-10T05:45:50.585Z,304.78
2023-05-10T05:46:50.461Z,305.06
2023-05-10T05:47:50.462Z,305.63
2023-05-10T05:48:50.493Z,302.54
2023-05-10T05:49:51.341Z,305.63
2023-05-10T05:50:50.424Z,304.50
2023-05-10T05:51:50.452Z,304.22
2023-05-10T05:52:50.371Z,303.10
2023-05-10T05:53:50.441Z,304.50
2023-05-10T05:54:51.291Z,303.38
2023-05-10T05:55:50.396Z,302.26
2023-05-10T05:56:50.405Z,303.38
2023-05-10T05:57:50.346Z,302.26
2023-05-10T05:58:50.294Z,300.88
2023-05-10T05:59:51.386Z,303.38
2023-05-10T06:00:50.359Z,302.82
2023-05-10T06:01:50.262Z,302.82
2023-05-10T06:02:50.416Z,302.82
2023-05-10T06:03:51.903Z,300.33
2023-05-10T06:04:51.227Z,302.26
2023-05-10T06:05:50.202Z,300.61
2023-05-10T06:06:50.214Z,299.24
2023-05-10T06:07:50.158Z,300.61
2023-05-10T06:08:50.862Z,299.51
2023-05-10T06:09:51.138Z,301.43
2023-05-10T06:10:50.150Z,299.24
2023-05-10T06:11:50.171Z,301.16
2023-05-10T06:12:50.167Z,299.51
2023-05-10T06:13:50.132Z,298.70
2023-05-10T06:14:51.039Z,299.51
2023-05-10T06:15:50.084Z,298.43
2023-05-10T06:16:50.111Z,299.24
2023-05-10T06:17:50.077Z,298.70
2023-05-10T06:18:50.096Z,298.43
2023-05-10T06:19:50.026Z,298.70
2023-05-10T06:20:51.053Z,297.35
2023-05-10T06:21:51.234Z,297.08
2023-05-10T06:22:49.994Z,296.55
2023-05-10T06:23:50.929Z,295.48
2023-05-10T06:24:49.957Z,296.81
2023-05-10T06:25:51.256Z,295.75
2023-05-10T06:26:49.979Z,295.75
2023-05-10T06:27:52.883Z,294.16
2023-05-10T06:28:49.885Z,293.38
2023-05-10T06:29:52.203Z,293.38
2023-05-10T06:30:51.359Z,292.85
2023-05-10T06:31:50.859Z,293.38
2023-05-10T06:32:49.873Z,292.08
2023-05-10T06:33:49.870Z,292.59
2023-05-10T06:34:49.820Z,291.04
2023-05-10T06:35:49.837Z,290.02
2023-05-10T06:36:49.793Z,291.04
2023-05-10T06:37:50.840Z,294.16
2023-05-10T06:38:49.827Z,289.00
2023-05-10T06:39:49.778Z,288.24
2023-05-10T06:40:49.801Z,290.27
2023-05-10T06:41:49.766Z,292.59
2023-05-10T06:42:50.663Z,285.00
2023-05-10T06:43:49.712Z,285.99
2023-05-10T06:44:49.796Z,283.77
2023-05-10T06:45:49.696Z,289.76
2023-05-10T06:46:49.683Z,288.75
2023-05-10T06:47:49.676Z,283.53
2023-05-10T06:48:50.567Z,283.53
2023-05-10T06:49:49.724Z,286.98
2023-05-10T06:50:49.616Z,289.00
2023-05-10T06:51:49.634Z,287.49
2023-05-10T06:52:51.175Z,285.49
2023-05-10T06:53:50.518Z,287.49
2023-05-10T06:54:49.657Z,286.49
2023-05-10T06:55:50.492Z,283.53
2023-05-10T06:56:49.555Z,285.49
2023-05-10T06:57:49.536Z,283.04
2023-05-10T06:58:49.600Z,285.49
2023-05-10T06:59:50.573Z,283.04
2023-05-10T07:00:49.527Z,281.83
2023-05-10T07:01:49.531Z,284.02
2023-05-10T07:02:50.447Z,281.59
2023-05-10T07:03:49.503Z,282.80
2023-05-10T07:04:49.564Z,281.11
2023-05-10T07:05:50.424Z,280.15
2023-05-10T07:06:49.443Z,280.63
2023-05-10T07:07:49.442Z,278.26
2023-05-10T07:08:49.442Z,279.91
2023-05-10T07:09:49.392Z,279.91
2023-05-10T07:10:50.335Z,279.67
2023-05-10T07:11:49.400Z,278.96
2023-05-10T07:12:49.429Z,277.55
2023-05-10T07:13:49.326Z,277.32
2023-05-10T07:14:49.279Z,276.16
2023-05-10T07:15:50.311Z,275.92
2023-05-10T07:16:50.243Z,276.85
2023-05-10T07:17:49.370Z,274.55
2023-05-10T07:18:49.339Z,273.18
2023-05-10T07:19:49.307Z,273.63
2023-05-10T07:20:49.221Z,272.27
2023-05-10T07:21:49.235Z,272.27
2023-05-10T07:22:50.210Z,271.38
2023-05-10T07:23:49.214Z,270.71
2023-05-10T07:24:49.243Z,270.71
2023-05-10T07:25:49.158Z,270.04
2023-05-10T07:26:49.143Z,268.72
2023-05-10T07:27:50.081Z,269.16
2023-05-10T07:28:49.121Z,268.50
2023-05-10T07:29:49.202Z,266.98
2023-05-10T07:30:49.153Z,266.76
2023-05-10T07:31:49.251Z,268.28
2023-05-10T07:32:49.227Z,265.26
2023-05-10T07:33:50.035Z,265.04
2023-05-10T07:34:49.156Z,265.47
2023-05-10T07:35:49.103Z,264.41
2023-05-10T07:36:49.012Z,262.30
2023-05-10T07:37:49.068Z,263.14
2023-05-10T07:38:49.954Z,260.64
2023-05-10T07:39:48.951Z,261.05
2023-05-10T07:40:49.963Z,261.05
2023-05-10T07:41:49.003Z,259.41
2023-05-10T07:42:48.973Z,260.02
2023-05-10T07:43:48.986Z,258.80
2023-05-10T07:44:49.841Z,257.98
2023-05-10T07:45:48.978Z,255.98
2023-05-10T07:46:48.930Z,255.78
2023-05-10T07:47:48.890Z,256.18
2023-05-10T07:48:48.916Z,254.60
2023-05-10T07:49:49.821Z,254.79
2023-05-10T07:50:49.097Z,254.60
2023-05-10T07:51:48.917Z,253.03
2023-05-10T07:52:48.844Z,251.10
2023-05-10T07:53:48.848Z,252.26
2023-05-10T07:54:49.754Z,252.26
2023-05-10T07:55:48.820Z,252.84
2023-05-10T07:56:48.728Z,251.29
2023-05-10T07:57:48.726Z,249.96
2023-05-10T07:58:48.772Z,250.91
2023-05-10T07:59:49.660Z,249.20
2023-05-10T08:00:48.691Z,249.20
2023-05-10T08:01:48.727Z,248.07
2023-05-10T08:02:48.792Z,247.70
2023-05-10T08:03:48.950Z,246.77
2023-05-10T08:04:49.626Z,246.04
2023-05-10T08:05:48.653Z,245.12
2023-05-10T08:06:48.878Z,244.39
2023-05-10T08:07:48.633Z,243.31
2023-05-10T08:08:48.637Z,241.88
2023-05-10T08:09:49.651Z,240.99
2023-05-10T08:10:48.654Z,240.29
2023-05-10T08:11:48.590Z,239.59
2023-05-10T08:12:48.544Z,238.38
2023-05-10T08:13:48.528Z,240.64
2023-05-10T08:14:48.560Z,239.77
2023-05-10T08:15:49.692Z,238.21
2023-05-10T08:16:49.454Z,237.86
2023-05-10T08:17:48.556Z,237.52
2023-05-10T08:18:48.578Z,235.65
2023-05-10T08:19:48.499Z,236.16
2023-05-10T08:20:48.447Z,234.48
2023-05-10T08:21:49.416Z,234.31
2023-05-10T08:22:50.010Z,234.31
2023-05-10T08:23:48.485Z,232.98
2023-05-10T08:24:48.524Z,232.98
2023-05-10T08:25:48.380Z,232.00
2023-05-10T08:26:48.386Z,232.32
2023-05-10T08:27:49.283Z,229.41
2023-05-10T08:28:48.347Z,229.73
2023-05-10T08:29:50.493Z,229.73
2023-05-10T08:30:48.356Z,228.62
2023-05-10T08:31:48.549Z,227.51
2023-05-10T08:32:48.386Z,227.04
2023-05-10T08:33:49.187Z,227.20
2023-05-10T08:34:48.237Z,225.02
2023-05-10T08:35:48.249Z,224.72
2023-05-10T08:36:48.307Z,225.02
2023-05-10T08:38:45.693Z,340.02
2023-05-10T08:39:46.648Z,294.69
2023-05-10T08:40:45.682Z,271.83
2023-05-10T08:41:45.686Z,259.00
2023-05-10T08:42:45.665Z,250.91
2023-05-10T08:43:45.653Z,243.67
2023-05-10T08:44:46.307Z,238.38
2023-05-10T08:45:46.559Z,233.31
2023-05-10T08:46:45.633Z,230.38
2023-05-10T08:47:45.656Z,228.62
2023-05-10T08:48:45.579Z,224.72
2023-05-10T08:49:45.551Z,225.18
2023-05-10T08:50:45.642Z,221.99
2023-05-10T08:51:46.435Z,221.39
2023-05-10T08:52:45.528Z,219.91
2023-05-10T08:53:45.512Z,218.75
2023-05-10T08:54:45.519Z,217.02
2023-05-10T08:55:45.485Z,216.16
2023-05-10T08:56:46.142Z,214.75
2023-05-10T08:57:46.424Z,214.75
2023-05-10T08:58:45.410Z,214.33
2023-05-10T08:59:45.457Z,212.81
2023-05-10T09:00:45.433Z,211.44
2023-05-10T09:01:45.399Z,210.90
2023-05-10T09:02:45.387Z,209.16
2023-05-10T09:03:45.426Z,208.50
2023-05-10T09:04:45.434Z,207.45
2023-05-10T09:05:45.341Z,208.50
2023-05-10T09:06:45.399Z,205.76
2023-05-10T09:07:45.323Z,206.28
2023-05-10T09:08:45.368Z,205.12
2023-05-10T09:09:46.243Z,204.87
2023-05-10T09:10:45.268Z,203.35
2023-05-10T09:11:45.272Z,202.23
2023-05-10T09:12:45.297Z,202.47
2023-05-10T09:13:45.274Z,202.10
2023-05-10T09:14:46.228Z,201.36
2023-05-10T09:15:45.607Z,201.24
2023-05-10T09:16:45.258Z,200.62
2023-05-10T09:17:45.233Z,199.17
2023-05-10T09:18:45.225Z,198.81
2023-05-10T09:19:45.198Z,198.57
2023-05-10T09:20:46.106Z,197.73
2023-05-10T09:21:45.142Z,196.90
2023-05-10T09:22:45.139Z,195.85
2023-05-10T09:23:47.364Z,194.46
2023-05-10T09:24:45.113Z,194.23
2023-05-10T09:25:46.044Z,194.46
2023-05-10T09:26:45.071Z,194.35
2023-05-10T09:27:45.114Z,194.92
2023-05-10T09:28:45.031Z,193.10
2023-05-10T09:29:45.059Z,193.10
2023-05-10T09:30:45.363Z,191.75
2023-05-10T09:31:46.003Z,190.86
2023-05-10T09:32:45.041Z,190.97
2023-05-10T09:33:44.977Z,190.20
2023-05-10T09:34:45.084Z,190.42
2023-05-10T09:35:45.046Z,189.43
2023-05-10T09:36:44.932Z,188.13
2023-05-10T09:37:45.932Z,188.24
2023-05-10T09:38:44.941Z,187.28
2023-05-10T09:39:44.924Z,185.90
2023-05-10T09:40:44.889Z,185.27
2023-05-10T09:41:44.956Z,185.07
2023-05-10T09:42:44.877Z,186.52
2023-05-10T09:43:45.800Z,186.11
2023-05-10T09:44:44.858Z,185.90
2023-05-10T09:45:44.840Z,184.27
2023-05-10T09:46:44.858Z,183.86
2023-05-10T09:47:44.892Z,183.46
2023-05-10T09:48:46.744Z,182.66
2023-05-10T09:49:44.816Z,181.08
2023-05-10T09:50:44.772Z,181.87
2023-05-10T09:51:44.767Z,180.49
2023-05-10T09:52:44.742Z,180.30
2023-05-10T09:53:45.672Z,179.91
2023-05-10T09:54:44.724Z,177.81
2023-05-10T09:55:44.729Z,178.76
2023-05-10T09:56:44.725Z,178.95
2023-05-10T09:57:44.709Z,178.38
2023-05-10T09:58:44.682Z,176.69
2023-05-10T09:59:45.570Z,177.06
2023-05-10T10:00:44.694Z,176.13
2023-05-10T10:01:44.744Z,175.76
2023-05-10T10:02:45.308Z,174.66
2023-05-10T10:03:44.774Z,174.66
2023-05-10T10:04:44.640Z,173.22
2023-05-10T10:05:45.576Z,172.68
2023-05-10T10:06:44.564Z,172.15
2023-05-10T10:07:44.577Z,171.79
2023-05-10T10:08:44.602Z,171.44
2023-05-10T10:09:44.550Z,171.27
2023-05-10T10:10:44.530Z,171.09
2023-05-10T10:11:45.496Z,170.22
2023-05-10T10:12:44.848Z,169.36
2023-05-10T10:13:44.541Z,169.71
2023-05-10T10:14:44.546Z,169.02
2023-05-10T10:15:44.498Z,168.00
2023-05-10T10:16:59.577Z,168.34
2023-05-10T10:17:45.982Z,167.84
2023-05-10T10:18:44.469Z,167.84
2023-05-10T10:19:44.418Z,167.16
2023-05-10T10:20:44.420Z,166.01
2023-05-10T10:21:44.399Z,165.51
2023-05-10T10:22:45.426Z,165.51
2023-05-10T10:23:44.363Z,164.70
2023-05-10T10:24:44.484Z,163.73
2023-05-10T10:25:44.329Z,162.78
2023-05-10T10:26:44.398Z,161.52
2023-05-10T10:27:45.251Z,160.44
2023-05-10T10:28:44.989Z,160.13
2023-05-10T10:29:44.313Z,159.07
2023-05-10T10:30:44.262Z,158.17
2023-05-10T10:31:44.382Z,156.84
2023-05-10T10:32:44.388Z,155.52
2023-05-10T10:33:46.881Z,153.81
2023-05-10T10:34:44.231Z,152.00
2023-05-10T10:35:44.185Z,151.17
2023-05-10T10:36:44.244Z,148.10
2023-05-10T10:37:44.192Z,148.49
2023-05-10T10:38:44.222Z,146.16
2023-05-10T10:39:45.127Z,143.53
2023-05-10T10:40:44.168Z,141.23
2023-05-10T10:41:44.183Z,137.07
2023-05-10T10:42:44.138Z,132.41
2023-05-10T10:43:44.125Z,129.04
2023-05-10T10:44:45.032Z,122.80
2023-05-10T10:45:44.116Z,115.60
2023-05-10T10:46:44.107Z,110.49
2023-05-10T10:47:44.193Z,104.75
2023-05-10T10:48:44.038Z,99.11
2023-05-10T10:49:44.046Z,94.74
2023-05-10T10:50:44.965Z,91.10
2023-05-10T10:51:44.035Z,87.03
2023-05-10T10:52:44.076Z,83.64
2023-05-10T10:53:44.001Z,79.89
2023-05-10T10:54:44.066Z,76.39
2023-05-10T10:55:43.982Z,73.00
2023-05-10T10:56:44.894Z,69.72
2023-05-10T10:57:43.977Z,66.72
2023-05-10T10:58:43.990Z,63.63
2023-05-10T10:59:44.131Z,60.90
2023-05-10T11:00:43.975Z,58.76
2023-05-10T11:01:44.841Z,56.46
2023-05-10T11:02:43.955Z,54.09
2023-05-10T11:03:43.913Z,52.17
2023-05-10T11:04:43.974Z,50.20
2023-05-10T11:05:43.959Z,48.35
2023-05-10T11:06:43.892Z,46.78
2023-05-10T11:07:44.822Z,44.93
2023-05-10T11:08:43.901Z,43.53
2023-05-10T11:09:43.836Z,42.13
2023-05-10T11:10:43.896Z,40.81
2023-05-10T11:11:43.952Z,39.58
2023-05-10T11:12:44.749Z,38.53
2023-05-10T11:13:43.850Z,37.69
2023-05-10T11:14:43.886Z,36.48
2023-05-10T11:15:43.814Z,35.73
2023-05-10T11:16:43.883Z,34.99
2023-05-10T11:17:44.873Z,33.94
2023-05-10T11:18:43.798Z,33.03
2023-05-10T11:19:44.430Z,32.07
2023-05-10T11:20:43.806Z,31.16
2023-05-10T11:21:43.789Z,30.35
2023-05-10T11:22:44.735Z,29.58
2023-05-10T11:23:43.703Z,28.81
2023-05-10T11:24:43.750Z,27.91
2023-05-10T11:25:43.716Z,27.24
2023-05-10T11:26:43.732Z,26.43
2023-05-10T11:27:44.614Z,25.76
2023-05-10T11:28:43.632Z,25.17
2023-05-10T11:29:43.614Z,24.58
2023-05-10T11:30:43.654Z,23.98
2023-05-10T11:31:43.657Z,23.42
2023-05-10T11:32:43.680Z,22.83
2023-05-10T11:33:44.564Z,22.34
2023-05-10T11:34:43.592Z,21.79
2023-05-10T11:35:43.920Z,21.30
2023-05-10T11:36:43.603Z,20.77
2023-05-10T11:37:43.545Z,20.19
2023-05-10T11:38:43.613Z,19.66
2023-05-10T11:39:44.488Z,19.21
2023-05-10T11:40:43.594Z,18.74
2023-05-10T11:41:43.530Z,18.38
2023-05-10T11:42:43.539Z,17.94
2023-05-10T11:43:43.525Z,17.58
2023-05-10T11:44:44.576Z,17.27
2023-05-10T11:45:43.509Z,16.97
2023-05-10T11:46:43.556Z,16.64
2023-05-10T11:47:43.497Z,16.36
2023-05-10T11:48:43.454Z,16.14
2023-05-10T11:49:44.426Z,15.92
2023-05-10T11:50:43.492Z,15.71
2023-05-10T11:51:43.463Z,15.52
2023-05-10T11:52:43.461Z,15.36
2023-05-10T11:53:43.472Z,15.24
2023-05-10T11:54:43.586Z,15.04
2023-05-10T11:55:44.363Z,14.93
2023-05-10T11:56:43.466Z,14.86
2023-05-10T11:57:43.432Z,14.74
2023-05-10T11:58:43.391Z,14.59
2023-05-10T11:59:43.458Z,14.44
2023-05-10T12:00:44.297Z,14.39
2023-05-10T12:01:43.335Z,14.27
2023-05-10T12:02:43.468Z,14.19
2023-05-10T12:03:43.430Z,14.10
2023-05-10T12:04:43.446Z,14.02
2023-05-10T12:05:43.301Z,13.93
2023-05-10T12:06:44.248Z,13.84
2023-05-10T12:07:43.329Z,13.69
2023-05-10T12:08:43.352Z,13.60
2023-05-10T12:09:44.328Z,13.48
2023-05-10T12:10:43.289Z,13.40
2023-05-10T12:11:44.720Z,13.34
2023-05-10T12:12:43.280Z,13.29
2023-05-10T12:13:43.246Z,13.21
2023-05-10T12:14:43.236Z,13.18
2023-05-10T12:15:43.262Z,13.16
2023-05-10T12:16:44.233Z,13.11
2023-05-10T12:17:43.532Z,13.07
2023-05-10T12:18:43.231Z,13.05
2023-05-10T12:19:43.177Z,12.97
2023-05-10T12:20:43.190Z,12.93
2023-05-10T12:21:44.122Z,12.88
2023-05-10T12:22:43.164Z,12.85
2023-05-10T12:23:43.153Z,12.77
2023-05-10T12:24:43.135Z,12.74
2023-05-10T12:25:43.166Z,12.66
2023-05-10T12:26:44.080Z,12.60
2023-05-10T12:27:43.106Z,12.56
2023-05-10T12:28:43.116Z,12.54
2023-05-10T12:29:43.149Z,12.45
2023-05-10T12:30:43.107Z,12.46
2023-05-10T12:31:43.141Z,12.43
2023-05-10T12:32:44.035Z,12.41